Time;durP1;ratioP1;P1;durP2;ratioP2;P2;SDS_P1;SDS_P2;PMS_P1;PMS_P2;Temp;Humidity;BMP_temperature;BMP_pressure;BME280_temperature;BME280_humidity;BME280_pressure;Samples;Min_cycle;Max_cycle;Signal;HPM_P1;HPM_P2
2021/10/03 00:01:57;;;;;;;46.20;30.83;;;;;;;7.50;66.64;101649.56;1680752;84;21010;-61
2021/10/03 00:04:26;;;;;;;43.07;31.30;;;;;;;7.34;66.89;101651.88;1687088;84;21406;-61
2021/10/03 00:06:53;;;;;;;45.03;32.23;;;;;;;7.17;67.41;101654.19;1694581;84;21160;-60
2021/10/03 00:09:23;;;;;;;39.80;28.57;;;;;;;7.02;67.87;101655.52;1666994;83;21103;-61
2021/10/03 00:11:51;;;;;;;39.73;32.17;;;;;;;6.91;68.39;101652.96;1688974;82;21063;-59
2021/10/03 00:14:21;;;;;;;34.03;27.93;;;;;;;6.83;68.65;101662.90;1683682;84;21093;-61
2021/10/03 00:16:49;;;;;;;38.93;29.20;;;;;;;6.78;69.01;101659.80;1684897;84;20998;-59
2021/10/03 00:19:16;;;;;;;41.47;28.13;;;;;;;6.77;68.96;101661.61;1678756;84;21077;-61
2021/10/03 00:21:43;;;;;;;29.67;22.87;;;;;;;6.81;69.12;101664.34;1677840;84;21050;-62
2021/10/03 00:24:12;;;;;;;35.03;25.23;;;;;;;6.88;69.20;101661.20;1686364;83;21125;-60
2021/10/03 00:26:40;;;;;;;34.30;25.83;;;;;;;6.92;69.28;101652.84;1680565;84;21058;-60
2021/10/03 00:29:07;;;;;;;35.70;23.83;;;;;;;6.91;69.28;101659.12;1676001;84;20994;-60
2021/10/03 00:31:34;;;;;;;38.40;27.87;;;;;;;6.93;69.33;101653.67;1678415;84;21505;-61
2021/10/03 00:33:59;;;;;;;;;;;;;;;6.94;69.21;101655.36;1687951;84;21021;-61
2021/10/03 00:36:26;;;;;;;34.50;26.27;;;;;;;6.94;69.11;101656.69;1690215;84;20474;-62
2021/10/03 00:38:52;;;;;;;35.98;28.42;;;;;;;6.90;69.17;101660.58;1683124;84;20982;-59
2021/10/03 00:41:19;;;;;;;43.35;31.80;;;;;;;6.89;69.09;101658.88;1668977;84;20975;-61
2021/10/03 00:43:45;;;;;;;;;;;;;;;6.88;69.02;101655.89;1678493;84;21060;-60
2021/10/03 00:46:12;;;;;;;41.07;28.20;;;;;;;6.85;69.03;101665.42;1633466;85;20231;-59
2021/10/03 00:48:39;;;;;;;37.73;29.80;;;;;;;6.85;69.03;101665.42;1629663;86;21777;-61
2021/10/03 00:51:05;;;;;;;41.42;31.30;;;;;;;6.82;68.74;101669.19;1638488;86;21048;-60
2021/10/03 00:53:31;;;;;;;38.25;28.67;;;;;;;6.78;68.92;101663.30;1690208;84;21018;-61
2021/10/03 00:55:58;;;;;;;38.45;28.67;;;;;;;6.69;69.12;101664.09;1685515;84;21018;-60
2021/10/03 00:58:25;;;;;;;38.67;29.33;;;;;;;6.65;69.15;101661.34;1682311;84;21018;-60
2021/10/03 01:00:51;;;;;;;43.30;31.50;;;;;;;6.64;69.09;101659.66;1685050;84;21049;-61
2021/10/03 01:03:18;;;;;;;39.60;30.45;;;;;;;6.63;69.11;101660.64;1685345;84;21096;-60
2021/10/03 01:05:44;;;;;;;40.47;30.20;;;;;;;6.57;69.11;101660.67;1684623;84;21559;-59
2021/10/03 01:08:11;;;;;;;38.98;28.07;;;;;;;6.55;69.17;101653.81;1680498;84;21033;-60
2021/10/03 01:10:37;;;;;;;38.73;28.70;;;;;;;6.58;69.04;101658.36;1664602;84;21112;-60
2021/10/03 01:13:13;;;;;;;40.30;29.37;;;;;;;6.60;69.08;101664.86;1685193;83;21485;-62
2021/10/03 01:15:44;;;;;;;45.00;31.00;;;;;;;6.54;69.22;101657.45;1684970;84;21018;-61
2021/10/03 01:18:13;;;;;;;37.27;29.90;;;;;;;6.46;69.37;101653.25;1686332;84;21051;-62
2021/10/03 01:20:42;;;;;;;35.13;27.67;;;;;;;6.39;69.50;101652.45;1686251;84;21042;-61
2021/10/03 01:23:10;;;;;;;41.73;27.73;;;;;;;6.38;69.56;101656.55;1687016;82;21049;-59
2021/10/03 01:25:42;;;;;;;37.30;26.90;;;;;;;6.40;69.52;101655.47;1683451;84;21017;-62
2021/10/03 01:28:10;;;;;;;36.83;29.30;;;;;;;6.50;69.30;101656.86;1684852;84;21052;-60
2021/10/03 01:30:41;;;;;;;38.57;30.37;;;;;;;6.54;69.25;101660.09;1660094;85;21065;-61
2021/10/03 01:33:09;;;;;;;35.77;27.17;;;;;;;6.51;69.33;101661.66;1667309;84;21628;-60
2021/10/03 01:35:36;;;;;;;;;;;;;;;6.45;69.41;101659.54;1679894;84;21026;-58
2021/10/03 01:38:04;;;;;;;37.77;28.00;;;;;;;6.42;69.49;101653.53;1664649;84;20103;-60
2021/10/03 01:40:31;;;;;;;39.30;30.33;;;;;;;6.33;69.71;101652.98;1685329;84;20970;-61
2021/10/03 01:42:59;;;;;;;41.40;29.70;;;;;;;6.26;69.75;101660.23;1681153;84;21176;-61
2021/10/03 01:45:28;;;;;;;35.20;28.00;;;;;;;6.22;69.89;101652.54;1676743;83;21103;-59
2021/10/03 01:48:06;;;;;;;37.03;25.77;;;;;;;6.26;69.87;101654.95;1677960;84;21057;-61
2021/10/03 01:50:41;;;;;;;31.67;26.47;;;;;;;6.30;69.89;101654.55;1685279;84;20987;-62
2021/10/03 01:53:10;;;;;;;38.83;26.67;;;;;;;6.34;69.99;101661.75;1692436;84;21049;-61
2021/10/03 01:55:38;;;;;;;32.70;25.20;;;;;;;6.30;70.10;101662.49;1680663;84;20994;-60
2021/10/03 01:58:07;;;;;;;38.63;24.77;;;;;;;6.27;70.20;101654.80;1688733;84;21103;-61
2021/10/03 02:00:36;;;;;;;39.50;28.13;;;;;;;6.26;70.20;101657.10;1682942;84;21115;-62
2021/10/03 02:03:06;;;;;;;35.90;26.23;;;;;;;6.26;70.18;101657.10;1681012;84;21093;-60
2021/10/03 02:05:42;;;;;;;32.07;24.03;;;;;;;6.25;70.22;101652.75;1679181;84;21026;-61
2021/10/03 02:08:12;;;;;;;33.23;26.23;;;;;;;6.29;70.05;101652.88;1681176;84;21111;-60
2021/10/03 02:10:42;;;;;;;34.60;24.80;;;;;;;6.34;69.98;101658.61;1681278;84;20964;-60
2021/10/03 02:13:11;;;;;;;34.77;27.47;;;;;;;6.33;70.01;101652.98;1674383;84;20993;-62
2021/10/03 02:18:09;;;;;;;36.30;27.85;;;;;;;6.35;69.93;101657.66;1782436;78;22289;-62
2021/10/03 02:20:36;;;;;;;38.20;29.80;;;;;;;6.28;69.96;101663.11;1742429;80;21002;-61
2021/10/03 02:23:07;;;;;;;38.70;30.43;;;;;;;6.25;69.96;101658.05;1734223;80;21005;-61
2021/10/03 02:25:40;;;;;;;39.43;27.23;;;;;;;6.18;70.09;101665.68;1722209;81;21092;-61
2021/10/03 02:28:03;;;;;;;42.00;26.73;;;;;;;6.14;70.25;101663.40;1728742;81;21028;-59
2021/10/03 02:30:31;;;;;;;33.60;24.57;;;;;;;6.14;70.22;101665.59;1723305;81;21025;-62
2021/10/03 02:32:58;;;;;;;34.88;26.42;;;;;;;6.17;70.32;101663.16;1741549;81;21232;-59
2021/10/03 02:35:25;;;;;;;37.07;26.47;;;;;;;6.18;70.38;101660.87;1692244;80;21519;-61
2021/10/03 02:37:51;;;;;;;42.10;29.27;;;;;;;6.15;70.51;101667.74;1691013;83;21539;-61
2021/10/03 02:40:18;;;;;;;39.05;27.48;;;;;;;6.11;70.61;101663.67;1666228;83;21048;-61
2021/10/03 02:42:45;;;;;;;37.53;25.17;;;;;;;6.08;70.63;101663.91;1683124;83;21603;-61
2021/10/03 02:45:12;;;;;;;31.17;24.85;;;;;;;6.06;70.92;101668.50;1670416;80;21067;-64
2021/10/03 02:47:40;;;;;;;31.93;24.57;;;;;;;6.00;70.99;101666.70;1675310;84;20993;-60
2021/10/03 02:50:08;;;;;;;30.17;23.65;;;;;;;6.02;70.91;101667.91;1666626;84;21009;-61
2021/10/03 02:52:35;;;;;;;27.77;21.93;;;;;;;6.06;71.01;101673.79;1676785;84;21035;-62
2021/10/03 02:55:03;;;;;;;;;;;;;;;6.06;71.03;101669.82;1662845;84;21559;-62
2021/10/03 02:57:29;;;;;;;30.90;23.67;;;;;;;5.95;71.30;101666.69;1662518;84;20110;-60
2021/10/03 02:59:55;;;;;;;33.78;24.45;;;;;;;5.82;71.56;101674.78;1659503;84;21559;-62
2021/10/03 03:02:21;;;;;;;30.05;23.98;;;;;;;5.77;71.68;101671.69;1663851;82;21079;-60
2021/10/03 03:04:47;;;;;;;29.25;22.52;;;;;;;5.77;71.72;101670.37;1667171;84;21110;-60
2021/10/03 03:07:13;;;;;;;37.38;24.40;;;;;;;5.79;71.76;101667.11;1654170;84;21595;-61
2021/10/03 03:09:40;;;;;;;28.17;22.40;;;;;;;5.84;71.48;101668.42;1662772;84;21068;-62
2021/10/03 03:12:06;;;;;;;28.42;23.38;;;;;;;5.89;71.36;101666.70;1654027;80;21051;-61
2021/10/03 03:14:34;;;;;;;29.73;22.40;;;;;;;5.88;71.40;101665.05;1642868;85;21716;-61
2021/10/03 03:17:05;;;;;;;28.57;22.85;;;;;;;5.82;71.63;101668.16;1654218;85;21079;-60
2021/10/03 03:19:32;;;;;;;29.70;23.63;;;;;;;5.76;71.79;101671.31;1660226;85;21041;-62
2021/10/03 03:21:58;;;;;;;32.73;23.27;;;;;;;5.72;71.94;101673.86;1649838;85;21608;-60
2021/10/03 03:24:24;;;;;;;29.48;22.75;;;;;;;5.70;71.95;101670.50;1648301;82;21079;-60
2021/10/03 03:26:50;;;;;;;29.23;21.23;;;;;;;5.73;71.89;101666.30;1657441;85;20997;-62
2021/10/03 03:29:16;;;;;;;29.82;21.95;;;;;;;5.81;71.73;101669.98;1654646;85;21083;-61
2021/10/03 03:31:42;;;;;;;39.73;23.12;;;;;;;5.87;71.59;101675.25;1655647;85;21005;-59
2021/10/03 03:34:08;;;;;;;31.80;22.25;;;;;;;5.87;71.65;101669.96;1656132;82;21500;-62
2021/10/03 03:36:34;;;;;;;35.28;23.10;;;;;;;5.85;71.76;101665.28;1693893;83;21068;-63
2021/10/03 03:39:00;;;;;;;30.95;23.22;;;;;;;5.82;71.71;101666.84;1651663;85;21481;-61
2021/10/03 03:41:26;;;;;;;32.17;23.65;;;;;;;5.78;71.77;101672.89;1646463;85;21069;-62
2021/10/03 03:43:52;;;;;;;35.40;24.25;;;;;;;5.76;71.83;101677.44;1659981;85;21037;-61
2021/10/03 03:46:18;;;;;;;28.15;20.50;;;;;;;5.78;71.77;101672.03;1641193;82;21407;-60
2021/10/03 03:48:44;;;;;;;31.62;22.15;;;;;;;5.85;71.54;101674.55;1632371;86;21031;-60
2021/10/03 03:51:10;;;;;;;36.70;22.98;;;;;;;5.87;71.38;101683.20;1614082;87;21560;-61
2021/10/03 03:53:36;;;;;;;33.73;22.67;;;;;;;5.84;71.49;101680.33;1617226;87;21024;-62
2021/10/03 03:56:03;;;;;;;27.73;22.13;;;;;;;5.77;71.69;101680.95;1636527;85;21017;-61
2021/10/03 03:58:30;;;;;;;29.10;22.30;;;;;;;5.74;71.83;101684.66;1641847;85;21113;-61
2021/10/03 04:00:56;;;;;;;32.10;23.80;;;;;;;5.73;71.86;101679.52;1645046;85;20974;-62
2021/10/03 04:03:22;;;;;;;37.05;23.27;;;;;;;5.68;71.89;101681.69;1662067;85;21034;-61
2021/10/03 04:05:48;;;;;;;30.82;22.32;;;;;;;5.62;71.93;101681.20;1657837;85;21038;-62
2021/10/03 04:08:15;;;;;;;30.97;21.45;;;;;;;5.69;71.83;101672.77;1629823;85;21017;-63
2021/10/03 04:10:41;;;;;;;28.38;20.52;;;;;;;5.74;71.77;101678.55;1659520;85;21025;-61
2021/10/03 04:13:08;;;;;;;30.33;21.97;;;;;;;5.74;71.83;101683.34;1656484;85;21348;-61
2021/10/03 04:15:35;;;;;;;29.70;23.47;;;;;;;5.72;71.88;101693.70;1662794;85;21018;-61
2021/10/03 04:18:02;;;;;;;35.53;25.20;;;;;;;5.74;71.89;101696.57;1667695;85;21019;-62
2021/10/03 04:20:29;;;;;;;;;;;;;;;5.77;71.82;101694.18;1686450;83;21459;-60
2021/10/03 04:22:55;;;;;;;32.43;24.00;;;;;;;5.82;71.80;101694.63;1667860;82;20123;-61
2021/10/03 04:25:21;;;;;;;33.70;22.40;;;;;;;5.96;72.19;101702.33;1647552;85;22143;-61
2021/10/03 04:27:47;;;;;;;28.95;22.22;;;;;;;6.33;71.52;101699.32;1658330;85;21018;-62
2021/10/03 04:30:13;;;;;;;33.00;24.27;;;;;;;6.83;70.14;101702.66;1655407;85;21128;-62
2021/10/03 04:32:39;;;;;;;32.50;25.17;;;;;;;7.30;69.27;101703.03;1664333;82;21196;-63
2021/10/03 04:35:07;;;;;;;30.95;23.65;;;;;;;7.77;67.50;101708.63;1728420;81;21003;-61
2021/10/03 04:37:33;;;;;;;30.83;24.27;;;;;;;8.21;65.70;101707.42;1745667;81;21061;-62
2021/10/03 04:40:01;;;;;;;31.87;25.43;;;;;;;8.57;64.10;101709.41;1742510;81;21021;-61
2021/10/03 04:42:27;;;;;;;30.20;25.57;;;;;;;8.95;62.34;101702.34;1735461;81;21004;-61
2021/10/03 04:44:54;;;;;;;40.83;27.90;;;;;;;9.29;61.84;101708.95;1745131;81;20981;-60
2021/10/03 04:47:21;;;;;;;32.53;25.87;;;;;;;9.72;60.37;101703.00;1737364;81;21486;-61
2021/10/03 04:49:49;;;;;;;33.50;27.93;;;;;;;10.14;58.87;101701.59;1739516;81;21016;-62
2021/10/03 04:52:15;;;;;;;32.83;25.70;;;;;;;10.48;57.78;101709.75;1736938;81;21144;-63
2021/10/03 04:54:43;;;;;;;31.20;26.40;;;;;;;10.77;56.52;101705.95;1695923;83;21047;-62
2021/10/03 04:57:08;;;;;;;32.33;26.27;;;;;;;11.02;55.34;101710.97;1671039;83;21076;-62
2021/10/03 04:59:35;;;;;;;27.13;24.32;;;;;;;11.21;54.64;101714.42;1672145;83;21860;-62
2021/10/03 05:02:01;;;;;;;33.58;27.45;;;;;;;11.25;54.16;101705.92;1721603;81;21040;-64
2021/10/03 05:04:27;;;;;;;33.08;27.22;;;;;;;11.25;53.59;101715.77;1723067;81;21067;-63
2021/10/03 05:06:53;;;;;;;29.45;26.42;;;;;;;11.14;53.71;101716.05;1721640;81;21059;-62
2021/10/03 05:09:21;;;;;;;29.48;25.82;;;;;;;11.13;53.75;101713.84;1726228;81;20993;-62
2021/10/03 05:11:49;;;;;;;31.12;24.85;;;;;;;11.26;53.55;101718.28;1724988;81;21124;-64
2021/10/03 05:14:16;;;;;;;29.52;23.92;;;;;;;11.59;53.09;101712.25;1711862;82;21108;-65
2021/10/03 05:16:43;;;;;;;30.85;23.50;;;;;;;12.02;52.20;101711.73;1729156;82;21064;-65
2021/10/03 05:19:09;;;;;;;28.10;22.55;;;;;;;12.50;51.09;101704.74;1722046;82;21013;-65
2021/10/03 05:21:36;;;;;;;24.12;21.65;;;;;;;12.98;50.06;101703.02;1707398;82;21032;-67
2021/10/03 05:24:03;;;;;;;23.77;20.17;;;;;;;13.44;48.60;101704.56;1719544;82;21014;-65
2021/10/03 05:26:31;;;;;;;23.42;19.37;;;;;;;13.91;47.46;101697.47;1717440;82;21039;-65
2021/10/03 05:28:58;;;;;;;23.25;19.95;;;;;;;14.33;46.25;101693.98;1712457;82;21045;-65
2021/10/03 05:31:24;;;;;;;24.87;18.62;;;;;;;14.63;45.35;101690.91;1710862;82;21478;-66
2021/10/03 05:33:51;;;;;;;25.30;18.70;;;;;;;14.88;43.67;101690.66;1711114;82;21536;-65
2021/10/03 05:36:17;;;;;;;21.25;18.50;;;;;;;14.95;43.55;101694.28;1715416;82;21597;-67
2021/10/03 05:38:45;;;;;;;23.75;19.27;;;;;;;15.08;43.70;101697.67;1714531;82;21065;-65
2021/10/03 05:41:12;;;;;;;23.98;19.40;;;;;;;15.31;42.95;101699.77;1710310;82;20977;-66
2021/10/03 05:43:38;;;;;;;27.90;19.17;;;;;;;15.54;42.68;101700.16;1711697;83;21127;-69
2021/10/03 05:46:06;;;;;;;23.40;18.80;;;;;;;15.76;42.07;101699.70;1723028;81;21492;-66
2021/10/03 05:48:33;;;;;;;21.27;17.92;;;;;;;15.96;41.65;101699.42;1732702;81;21108;-66
2021/10/03 05:51:00;;;;;;;20.43;17.17;;;;;;;16.10;41.18;101694.17;1722792;81;21050;-66
2021/10/03 05:53:28;;;;;;;20.75;17.52;;;;;;;16.18;41.16;101694.55;1732656;82;21044;-66
2021/10/03 05:55:54;;;;;;;22.90;18.27;;;;;;;16.26;40.89;101693.09;1731843;81;21123;-71
2021/10/03 05:58:21;;;;;;;;;;;;;;;16.34;40.96;101689.74;1671075;84;21070;-73
2021/10/03 06:00:49;;;;;;;27.10;19.00;;;;;;;16.43;40.61;101692.31;1671120;84;20144;-68
2021/10/03 06:03:15;;;;;;;;;;;;;;;16.45;40.06;101691.09;1692980;84;21022;-67
2021/10/03 06:05:41;;;;;;;25.27;19.82;;;;;;;16.51;40.22;101697.55;1704147;83;20128;-69
2021/10/03 06:08:07;;;;;;;23.38;19.40;;;;;;;16.59;40.42;101695.23;1694445;83;21062;-70
2021/10/03 06:10:34;;;;;;;28.67;21.62;;;;;;;16.69;39.86;101699.25;1690049;83;21034;-68
2021/10/03 06:13:00;;;;;;;;;;;;;;;16.70;39.55;101691.48;1701911;83;21032;-69
2021/10/03 06:15:26;;;;;;;29.67;20.80;;;;;;;16.58;39.84;101697.62;1696104;83;20236;-69
2021/10/03 06:17:53;;;;;;;31.10;19.67;;;;;;;16.00;41.22;101709.28;1685938;84;21045;-69
2021/10/03 06:20:19;;;;;;;30.82;20.88;;;;;;;15.33;42.13;101703.09;1714662;82;21068;-70
2021/10/03 06:22:46;;;;;;;26.75;19.67;;;;;;;14.70;43.72;101717.86;1711618;82;21023;-69
2021/10/03 06:25:14;;;;;;;27.00;18.32;;;;;;;14.09;44.59;101715.96;1704147;83;21556;-66
2021/10/03 06:27:43;;;;;;;22.98;18.07;;;;;;;13.55;46.15;101718.60;1688880;83;21104;-67
2021/10/03 06:30:12;;;;;;;22.90;18.42;;;;;;;13.11;47.34;101728.41;1704391;83;21022;-63
2021/10/03 06:32:39;;;;;;;28.40;19.70;;;;;;;12.65;48.48;101720.44;1677460;83;20977;-66
2021/10/03 06:35:11;;;;;;;42.17;26.65;;;;;;;12.26;50.44;101721.13;1674180;82;86157;-88
2021/10/03 06:37:46;;;;;;;30.55;18.92;;;;;;;11.97;51.01;101722.90;1670644;83;21011;-90
2021/10/03 06:46:54;;;;;;;34.75;20.62;;;;;;;11.32;54.02;101712.81;1694532;83;21082;-89
2021/10/03 06:49:33;;;;;;;33.10;20.37;;;;;;;11.13;54.29;101709.84;1695982;84;20990;-90
2021/10/03 06:52:13;;;;;;;41.30;23.25;;;;;;;11.07;55.06;101708.64;1699179;84;21009;-91
2021/10/03 06:55:15;;;;;;;;;;;;;;;;;;;;;
2021/10/03 06:57:49;;;;;;;39.27;22.13;;;;;;;10.96;56.17;101711.58;1697540;80;21054;-86
2021/10/03 07:00:36;;;;;;;48.87;24.13;;;;;;;10.89;55.77;101706.05;1695182;83;21879;-89
2021/10/03 07:03:07;;;;;;;40.03;23.10;;;;;;;10.88;56.21;101708.88;1702394;84;21110;-89
2021/10/03 07:05:36;;;;;;;50.90;24.97;;;;;;;10.90;57.43;101709.55;1682117;83;21109;-94
2021/10/03 07:08:56;;;;;;;;;;;;;;;;;;;;;
2021/10/03 07:11:22;;;;;;;31.12;19.00;;;;;;;11.01;56.03;101705.28;1685516;83;21100;-86
2021/10/03 07:13:58;;;;;;;42.07;22.40;;;;;;;11.02;55.66;101710.97;1673652;84;21069;-87
2021/10/03 07:16:34;;;;;;;43.37;21.77;;;;;;;10.99;55.87;101713.12;1696755;83;21054;-88
2021/10/03 07:19:12;;;;;;;43.63;21.33;;;;;;;11.00;56.15;101710.30;1641337;84;22188;-87
2021/10/03 07:21:46;;;;;;;55.45;24.15;;;;;;;10.60;56.68;101633.01;1597836;86;21037;-86
2021/10/03 07:24:21;;;;;;;44.27;22.37;;;;;;;11.18;56.46;101704.05;1597493;84;20998;-86
2021/10/03 07:26:57;;;;;;;65.92;23.05;;;;;;;11.27;55.58;101699.92;1577845;89;21755;-87
2021/10/03 07:29:34;;;;;;;40.00;20.50;;;;;;;11.33;55.04;101708.30;1594163;88;21160;-88
2021/10/03 07:32:09;;;;;;;39.33;19.10;;;;;;;11.30;54.99;101702.28;1595953;88;21054;-89
2021/10/03 07:35:03;;;;;;;56.13;20.77;;;;;;;11.28;55.02;101698.08;1571305;88;21006;-88
2021/10/03 07:38:07;;;;;;;50.10;22.20;;;;;;;11.32;55.27;101701.27;1593308;89;21006;-86
2021/10/03 07:41:04;;;;;;;47.70;22.47;;;;;;;11.39;55.19;101708.98;1598773;84;21057;-89
2021/10/03 07:43:32;;;;;;;56.65;21.97;;;;;;;11.51;55.54;101705.05;1567393;84;85038;-71
2021/10/03 07:45:59;;;;;;;49.77;21.57;;;;;;;11.68;55.37;101701.42;1580051;89;21552;-71
2021/10/03 07:48:25;;;;;;;47.75;22.13;;;;;;;11.89;55.05;101708.16;1582864;89;21212;-69
2021/10/03 07:50:51;;;;;;;60.33;23.57;;;;;;;12.02;54.48;101704.55;1568205;90;21031;-71
2021/10/03 07:56:49;;;;;;;49.15;21.00;;;;;;;12.20;53.96;101700.38;1655769;83;21096;-69
2021/10/03 07:59:15;;;;;;;62.88;23.35;;;;;;;12.36;53.61;101694.22;1678541;83;21102;-68
2021/10/03 08:01:41;;;;;;;34.43;17.67;;;;;;;12.51;53.30;101693.05;1666148;84;21123;-69
2021/10/03 08:04:07;;;;;;;34.88;17.07;;;;;;;12.69;52.82;101690.69;1663251;85;21586;-69
2021/10/03 08:06:33;;;;;;;40.20;18.65;;;;;;;12.89;51.68;101692.00;1655660;85;21024;-71
2021/10/03 08:09:03;;;;;;;23.98;12.98;;;;;;;13.04;50.70;101692.14;1629079;87;21064;-72
2021/10/03 08:11:30;;;;;;;23.55;12.35;;;;;;;13.10;49.63;101685.26;1622546;87;21022;-72
2021/10/03 08:13:56;;;;;;;17.67;12.63;;;;;;;13.17;49.83;101683.05;1649544;85;20959;-70
2021/10/03 08:16:22;;;;;;;26.82;14.10;;;;;;;13.23;49.80;101681.02;1639623;85;20977;-72
2021/10/03 08:18:50;;;;;;;27.87;13.18;;;;;;;13.34;48.81;101689.22;1648310;85;20994;-70
2021/10/03 08:21:17;;;;;;;18.62;11.97;;;;;;;13.47;48.39;101682.45;1626451;85;21456;-70
2021/10/03 08:23:44;;;;;;;13.78;10.95;;;;;;;13.52;48.05;101682.27;1635696;85;21037;-69
2021/10/03 08:26:10;;;;;;;;;;;;;;;13.58;48.52;101687.42;1642717;86;20956;-68
2021/10/03 08:28:36;;;;;;;9.38;8.48;;;;;;;13.69;48.01;101685.69;1621576;87;20117;-68
2021/10/03 08:31:02;;;;;;;13.48;9.20;;;;;;;13.75;46.91;101674.30;1672912;84;21635;-66
2021/10/03 08:33:28;;;;;;;16.23;9.68;;;;;;;13.80;46.41;101681.27;1670099;84;21180;-72
2021/10/03 08:35:55;;;;;;;14.55;10.30;;;;;;;13.88;46.71;101679.56;1665645;85;21126;-69
2021/10/03 08:38:21;;;;;;;18.25;8.88;;;;;;;13.96;46.21;101680.87;1597975;88;21115;-71
2021/10/03 08:40:49;;;;;;;21.90;11.40;;;;;;;14.00;45.23;101676.30;1651692;85;21123;-69
2021/10/03 08:43:15;;;;;;;19.27;10.65;;;;;;;14.09;45.81;101684.27;1628033;87;21073;-68
2021/10/03 08:45:44;;;;;;;11.57;8.88;;;;;;;14.12;45.74;101679.39;1606543;87;21511;-69
2021/10/03 08:48:16;;;;;;;16.23;8.88;;;;;;;14.17;45.96;101676.19;1622580;87;21053;-69
2021/10/03 08:50:45;;;;;;;15.05;10.82;;;;;;;14.26;45.70;101681.82;1637569;86;21122;-69
2021/10/03 08:53:15;;;;;;;26.02;9.98;;;;;;;14.33;45.88;101681.40;1651049;86;21473;-69
2021/10/03 08:55:41;;;;;;;15.55;10.28;;;;;;;14.44;44.88;101683.34;1650933;86;21146;-72
2021/10/03 08:58:07;;;;;;;8.95;8.08;;;;;;;14.53;44.64;101683.09;1630124;87;21087;-71
2021/10/03 09:00:37;;;;;;;;;;;;;;;14.60;44.58;101678.70;1618165;87;21065;-69
2021/10/03 09:03:08;;;;;;;8.45;5.37;;;;;;;14.67;43.18;101669.91;1619615;87;20151;-69
2021/10/03 09:05:40;;;;;;;11.65;6.03;;;;;;;14.60;43.04;101674.67;1628488;87;21464;-70
2021/10/03 09:08:23;;;;;;;6.75;5.45;;;;;;;14.65;42.70;101682.67;1615952;87;21018;-71
2021/10/03 09:11:09;;;;;;;7.97;6.00;;;;;;;14.72;42.81;101675.57;1615713;87;21113;-70
2021/10/03 09:13:46;;;;;;;7.35;5.03;;;;;;;14.77;42.85;101673.17;1615296;87;21152;-70
2021/10/03 09:16:38;;;;;;;6.55;4.17;;;;;;;14.85;40.55;101678.45;1620148;87;21069;-68
2021/10/03 09:19:10;;;;;;;12.78;5.83;;;;;;;14.90;39.48;101676.06;1610457;88;21116;-69
2021/10/03 09:21:41;;;;;;;35.23;10.90;;;;;;;14.94;40.03;101680.03;1606126;88;21020;-67
2021/10/03 09:24:18;;;;;;;15.60;6.33;;;;;;;15.04;38.90;101688.33;1658708;85;21596;-72
2021/10/03 09:27:03;;;;;;;51.05;14.28;;;;;;;15.09;38.44;101688.09;1638310;86;21070;-68
2021/10/03 09:29:36;;;;;;;17.35;6.55;;;;;;;15.07;38.44;101683.42;1659158;85;21060;-69
2021/10/03 09:32:15;;;;;;;12.68;4.72;;;;;;;15.04;37.95;101685.64;1665106;83;21048;-71
2021/10/03 09:34:47;;;;;;;5.03;3.90;;;;;;;15.05;38.72;101685.47;1632855;85;20981;-73
2021/10/03 09:37:26;;;;;;;5.60;3.70;;;;;;;15.13;38.42;101683.19;1606212;88;20981;-72
2021/10/03 09:40:13;;;;;;;8.55;3.85;;;;;;;15.21;37.58;101693.83;1615227;87;21097;-71
2021/10/03 09:42:40;;;;;;;9.13;5.45;;;;;;;15.20;38.04;101676.06;1605947;88;20973;-70
2021/10/03 09:45:17;;;;;;;5.00;4.42;;;;;;;15.18;38.00;101684.30;1642734;85;20960;-72
2021/10/03 09:47:45;;;;;;;10.23;3.77;;;;;;;15.24;37.63;101683.21;1642905;86;21532;-71
2021/10/03 09:50:15;;;;;;;8.08;4.25;;;;;;;15.28;37.28;101675.95;1643097;86;21006;-70
2021/10/03 09:52:42;;;;;;;12.93;5.47;;;;;;;15.31;37.36;101668.88;1642766;86;21031;-68
2021/10/03 09:55:14;;;;;;;13.68;6.65;;;;;;;15.29;37.52;101670.06;1652773;86;21047;-69
2021/10/03 09:57:43;;;;;;;19.35;6.95;;;;;;;15.25;37.38;101666.91;1661016;85;21044;-72
2021/10/03 10:00:15;;;;;;;4.92;3.58;;;;;;;15.29;37.81;101662.83;1658184;85;21613;-70
2021/10/03 10:02:45;;;;;;;4.92;3.45;;;;;;;15.38;37.62;101654.17;1660508;85;21062;-70
2021/10/03 10:05:11;;;;;;;3.27;2.98;;;;;;;15.41;37.67;101651.60;1649041;86;21090;-70
2021/10/03 10:07:39;;;;;;;4.42;3.67;;;;;;;15.37;37.69;101651.17;1661583;85;21656;-69
2021/10/03 10:10:08;;;;;;;6.55;3.92;;;;;;;15.35;37.86;101655.88;1647419;86;21624;-74
2021/10/03 10:12:56;;;;;;;2.95;2.75;;;;;;;15.35;38.25;101652.70;1616925;87;21661;-72
2021/10/03 10:15:24;;;;;;;5.55;3.10;;;;;;;15.37;37.57;101655.20;1678928;84;21133;-70
2021/10/03 10:17:51;;;;;;;3.15;2.20;;;;;;;15.41;37.59;101654.29;1654389;85;21049;-71
2021/10/03 10:20:27;;;;;;;4.05;2.95;;;;;;;15.45;37.42;101650.23;1649803;85;21099;-68
2021/10/03 10:23:05;;;;;;;2.17;1.98;;;;;;;15.49;37.75;101639.42;1659507;85;21127;-68
2021/10/03 10:25:54;;;;;;;2.95;2.50;;;;;;;15.57;37.72;101637.95;1679184;84;20982;-70
2021/10/03 10:28:30;;;;;;;3.40;2.92;;;;;;;15.65;37.17;101635.17;1684679;83;21126;-70
2021/10/03 10:31:13;;;;;;;3.62;2.22;;;;;;;15.72;37.24;101632.02;1684165;84;21517;-67
2021/10/03 10:33:56;;;;;;;3.42;2.90;;;;;;;15.75;37.19;101636.23;1654249;85;21029;-69
2021/10/03 10:36:51;;;;;;;2.98;2.67;;;;;;;15.77;37.39;101632.84;1639737;86;21140;-66
2021/10/03 10:39:20;;;;;;;3.70;2.92;;;;;;;15.81;37.48;101629.26;1647387;86;21078;-69
2021/10/03 10:41:58;;;;;;;16.25;5.45;;;;;;;15.88;37.41;101626.95;1648439;86;21051;-67
2021/10/03 10:44:29;;;;;;;32.28;8.98;;;;;;;15.91;36.77;101632.45;1647394;86;21139;-69
2021/10/03 10:47:14;;;;;;;11.08;5.62;;;;;;;15.87;36.87;101623.11;1647274;86;21124;-81
2021/10/03 10:49:53;;;;;;;9.28;4.17;;;;;;;15.84;36.29;101634.23;1650735;85;21060;-68
2021/10/03 10:52:25;;;;;;;28.65;8.93;;;;;;;15.79;36.44;101617.87;1653528;86;21048;-67
2021/10/03 10:55:11;;;;;;;4.58;4.05;;;;;;;15.78;36.61;101610.81;1650785;86;21086;-68
2021/10/03 10:57:57;;;;;;;3.52;3.33;;;;;;;15.76;36.46;101607.82;1644981;86;21126;-67
2021/10/03 11:00:28;;;;;;;5.28;3.58;;;;;;;15.71;37.23;101614.23;1646348;86;21029;-68
2021/10/03 11:03:05;;;;;;;6.87;3.77;;;;;;;15.67;37.49;101608.08;1644751;86;21030;-68
2021/10/03 11:05:47;;;;;;;3.12;2.83;;;;;;;15.69;37.67;101605.54;1649068;86;21140;-68
2021/10/03 11:08:16;;;;;;;3.85;3.02;;;;;;;15.76;37.65;101601.09;1640681;86;21016;-69
2021/10/03 11:11:09;;;;;;;6.80;3.33;;;;;;;15.84;37.24;101597.94;1655474;85;21015;-68
2021/10/03 11:13:46;;;;;;;6.87;3.00;;;;;;;15.87;37.30;101611.00;1648201;85;21075;-70
2021/10/03 11:16:33;;;;;;;7.53;3.12;;;;;;;15.73;37.20;101590.72;1622884;87;21048;-69
2021/10/03 11:19:11;;;;;;;5.95;2.95;;;;;;;15.66;37.26;101604.56;1654096;86;21069;-68
2021/10/03 11:21:45;;;;;;;6.17;3.55;;;;;;;15.62;37.44;101585.81;1648987;86;21063;-67
2021/10/03 11:24:23;;;;;;;21.02;7.25;;;;;;;15.61;38.00;101589.52;1633096;87;21013;-68
2021/10/03 11:27:12;;;;;;;12.03;4.45;;;;;;;15.64;37.78;101577.57;1623629;87;21538;-67
2021/10/03 11:29:43;;;;;;;3.05;2.60;;;;;;;15.69;38.13;101585.38;1651677;85;21128;-67
2021/10/03 11:32:13;;;;;;;4.10;2.08;;;;;;;15.78;37.60;101579.89;1638589;86;21028;-68
2021/10/03 11:34:54;;;;;;;7.83;2.37;;;;;;;15.80;37.52;101584.56;1627998;87;21028;-67
2021/10/03 11:37:44;;;;;;;1.80;1.70;;;;;;;15.81;37.26;101575.48;1633024;86;21095;-71
2021/10/03 11:40:16;;;;;;;6.85;2.40;;;;;;;15.80;37.31;101582.70;1623928;87;21083;-81
2021/10/03 11:42:52;;;;;;;3.10;2.83;;;;;;;15.76;37.24;101571.53;1647844;85;21024;-67
2021/10/03 11:45:27;;;;;;;5.22;2.52;;;;;;;15.72;37.67;101572.87;1664071;83;21030;-70
2021/10/03 11:48:00;;;;;;;6.85;2.70;;;;;;;15.68;37.81;101570.27;1686658;84;20998;-67
2021/10/03 11:50:42;;;;;;;6.45;3.42;;;;;;;15.67;37.25;101575.83;1681664;84;20989;-67